Time;durP1;ratioP1;P1;durP2;ratioP2;P2;SDS_P1;SDS_P2;PMS_P1;PMS_P2;Temp;Humidity;BMP_temperature;BMP_pressure;BME280_temperature;BME280_humidity;BME280_pressure;Samples;Min_cycle;Max_cycle;Signal;HPM_P1;HPM_P2
2022/09/17 00:01:46;;;;;;;3.67;1.70;;;;;;;21.07;100.00;100959.47;6281013;22;20421;-88
2022/09/17 00:04:15;;;;;;;7.53;1.77;;;;;;;21.08;100.00;100950.03;6230916;22;20397;-88
2022/09/17 00:06:43;;;;;;;7.20;2.00;;;;;;;21.07;100.00;100949.19;6281102;22;20450;-88
2022/09/17 00:09:11;;;;;;;6.20;1.80;;;;;;;21.09;100.00;100954.50;6255789;22;20792;-88
2022/09/17 00:11:48;;;;;;;8.17;2.20;;;;;;;21.01;100.00;100939.09;6230466;22;20480;-88
2022/09/17 00:14:17;;;;;;;5.30;1.50;;;;;;;21.07;100.00;100953.91;6306219;22;20451;-89
2022/09/17 00:16:46;;;;;;;8.60;2.23;;;;;;;21.03;100.00;100948.03;6255949;22;20417;-89
2022/09/17 00:19:44;;;;;;;4.53;1.40;;;;;;;21.03;100.00;100953.59;6255468;22;20403;-89
2022/09/17 00:22:12;;;;;;;8.13;1.87;;;;;;;21.03;100.00;100951.66;6275719;22;20897;-89
2022/09/17 00:24:46;;;;;;;8.97;1.67;;;;;;;21.02;100.00;100952.75;6256131;22;20397;-88
2022/09/17 00:27:16;;;;;;;7.20;1.30;;;;;;;20.93;100.00;100936.78;6230740;22;20480;-88
2022/09/17 00:29:47;;;;;;;8.10;1.57;;;;;;;21.00;100.00;100948.53;6307623;22;20397;-88
2022/09/17 00:32:17;;;;;;;6.47;1.93;;;;;;;20.94;100.00;100942.09;6281600;22;20778;-89
2022/09/17 00:34:48;;;;;;;13.60;2.30;;;;;;;20.96;100.00;100955.72;6255711;22;20484;-88
2022/09/17 00:37:17;;;;;;;6.57;2.20;;;;;;;20.92;100.00;100947.06;6280496;22;20419;-89
2022/09/17 00:39:45;;;;;;;6.60;1.90;;;;;;;20.92;100.00;100952.63;6280890;22;20859;-88
2022/09/17 00:42:14;;;;;;;7.47;1.70;;;;;;;20.90;100.00;100940.06;6230541;22;20434;-88
2022/09/17 00:44:49;;;;;;;5.63;1.60;;;;;;;20.91;100.00;100939.81;6280728;22;20763;-88
2022/09/17 00:47:23;;;;;;;3.90;1.80;;;;;;;20.91;100.00;100938.97;6280927;22;20396;-88
2022/09/17 00:50:05;;;;;;;5.00;1.90;;;;;;;20.86;100.00;100939.75;6280414;22;20397;-88
2022/09/17 00:52:35;;;;;;;7.23;2.37;;;;;;;20.82;100.00;100923.84;6305625;22;20443;-88
2022/09/17 00:55:23;;;;;;;9.43;1.93;;;;;;;20.80;100.00;100931.59;6255287;22;20394;-88
2022/09/17 00:57:52;;;;;;;4.33;1.50;;;;;;;20.77;100.00;100923.78;6255282;22;20742;-88
2022/09/17 01:00:21;;;;;;;6.60;1.43;;;;;;;20.75;100.00;100917.66;6255809;22;20403;-88
2022/09/17 01:02:49;;;;;;;7.93;2.50;;;;;;;20.72;100.00;100918.16;6282604;22;20443;-89
2022/09/17 01:05:19;;;;;;;5.77;1.77;;;;;;;20.72;100.00;100912.59;6232905;22;20867;-89
2022/09/17 01:07:47;;;;;;;7.73;1.80;;;;;;;20.72;100.00;100910.66;6257500;22;20967;-88
2022/09/17 01:10:17;;;;;;;7.63;1.90;;;;;;;20.71;100.00;100910.91;6282528;22;20404;-88
2022/09/17 01:13:02;;;;;;;10.07;1.93;;;;;;;20.65;100.00;100905.28;6282072;22;20455;-88
2022/09/17 01:16:01;;;;;;;5.33;1.60;;;;;;;20.66;100.00;100904.19;6308304;22;20776;-88
2022/09/17 01:18:57;;;;;;;8.40;2.13;;;;;;;20.65;100.00;100902.50;6271995;22;20398;-88
2022/09/17 01:21:28;;;;;;;5.20;1.30;;;;;;;20.65;100.00;100901.66;6282926;22;20479;-88
2022/09/17 01:24:21;;;;;;;5.30;1.73;;;;;;;20.63;100.00;100899.16;6282896;22;20388;-88
2022/09/17 01:27:21;;;;;;;7.93;1.47;;;;;;;20.64;100.00;100888.88;6309916;22;20723;-88
2022/09/17 01:30:09;;;;;;;10.40;1.67;;;;;;;20.63;100.00;100893.59;6282588;22;20483;-88
2022/09/17 01:33:13;;;;;;;5.57;1.27;;;;;;;20.63;100.00;100898.31;6282219;22;20498;-88
2022/09/17 01:36:06;;;;;;;10.33;1.70;;;;;;;20.61;100.00;100894.94;6282916;22;20822;-88
2022/09/17 01:38:43;;;;;;;5.97;1.60;;;;;;;20.57;100.00;100888.25;6282636;22;20391;-89
2022/09/17 01:41:32;;;;;;;8.10;1.37;;;;;;;20.60;100.00;100890.47;6257453;22;20411;-88
2022/09/17 01:44:26;;;;;;;8.23;1.73;;;;;;;20.58;100.00;100888.00;6235339;22;20408;-88
2022/09/17 01:47:29;;;;;;;7.77;1.30;;;;;;;20.57;100.00;100889.09;6179390;23;20436;-88
2022/09/17 01:50:07;;;;;;;4.90;1.20;;;;;;;20.56;100.00;100884.63;6158701;23;20906;-88
2022/09/17 01:52:35;;;;;;;7.23;1.50;;;;;;;20.53;100.00;100876.81;6160145;23;20762;-88
2022/09/17 01:55:05;;;;;;;5.70;1.50;;;;;;;20.55;100.00;100876.53;6159970;23;20400;-88
2022/09/17 01:57:39;;;;;;;4.70;1.10;;;;;;;20.53;100.00;100879.56;6136149;23;20782;-89
2022/09/17 02:00:10;;;;;;;3.20;1.10;;;;;;;20.47;100.00;100865.88;6159851;23;20495;-88
2022/09/17 02:02:49;;;;;;;5.60;1.70;;;;;;;20.47;100.00;100872.25;6159954;23;20534;-88
2022/09/17 02:05:30;;;;;;;4.40;1.40;;;;;;;20.40;100.00;100866.03;6136263;23;20409;-88
2022/09/17 02:08:14;;;;;;;7.50;1.67;;;;;;;20.37;100.00;100863.81;6159930;23;20409;-88
2022/09/17 02:10:54;;;;;;;12.70;1.50;;;;;;;20.35;100.00;100861.25;6184154;23;20423;-88
2022/09/17 02:13:27;;;;;;;5.13;1.47;;;;;;;20.31;100.00;100865.63;6184024;23;20447;-88
2022/09/17 02:16:23;;;;;;;6.50;1.53;;;;;;;20.31;100.00;100856.44;6160839;23;20408;-89
2022/09/17 02:19:05;;;;;;;4.07;1.20;;;;;;;20.29;100.00;100858.63;6184590;23;20488;-88
2022/09/17 02:21:53;;;;;;;5.07;1.20;;;;;;;20.26;100.00;100859.16;6135636;23;20404;-88
2022/09/17 02:24:53;;;;;;;3.53;1.13;;;;;;;20.25;100.00;100857.47;6216982;22;20406;-88
2022/09/17 02:27:33;;;;;;;4.23;1.30;;;;;;;20.24;100.00;100855.78;6270779;22;20890;-88
2022/09/17 02:30:02;;;;;;;3.90;0.97;;;;;;;20.27;100.00;100849.72;6282497;22;20461;-88
2022/09/17 02:32:32;;;;;;;5.57;1.37;;;;;;;20.27;100.00;100850.56;6282099;22;20730;-89
2022/09/17 02:35:00;;;;;;;4.37;1.60;;;;;;;20.28;100.00;100851.41;6281533;22;20404;-88
2022/09/17 02:37:29;;;;;;;3.50;0.87;;;;;;;20.27;100.00;100852.50;6282828;22;20404;-88
2022/09/17 02:39:59;;;;;;;2.37;0.80;;;;;;;20.26;100.00;100848.88;6306929;22;20422;-88
2022/09/17 02:42:43;;;;;;;6.17;1.40;;;;;;;20.24;100.00;100845.53;6308472;22;20400;-88
2022/09/17 02:45:14;;;;;;;5.67;1.50;;;;;;;20.23;100.00;100848.56;6310792;22;20488;-88
2022/09/17 02:48:09;;;;;;;4.80;1.17;;;;;;;20.19;100.00;100842.69;6339511;22;20408;-88
2022/09/17 02:51:04;;;;;;;5.10;1.37;;;;;;;20.14;100.00;100837.06;6313343;22;20401;-88
2022/09/17 02:54:11;;;;;;;3.07;0.70;;;;;;;20.12;100.00;100841.19;6313648;22;20443;-88
2022/09/17 02:56:53;;;;;;;6.27;1.60;;;;;;;20.09;100.00;100841.69;6339450;22;20498;-88
2022/09/17 02:59:30;;;;;;;3.23;1.30;;;;;;;20.05;100.00;100823.84;6338830;22;20404;-88
2022/09/17 03:02:00;;;;;;;4.23;0.97;;;;;;;20.04;100.00;100825.78;6311964;22;20878;-89
2022/09/17 03:04:28;;;;;;;2.30;0.80;;;;;;;20.04;100.00;100823.00;6312054;22;20408;-87
2022/09/17 03:06:58;;;;;;;6.70;1.40;;;;;;;20.03;100.00;100826.88;6288404;22;20431;-88
2022/09/17 03:09:27;;;;;;;4.70;1.03;;;;;;;20.05;100.00;100823.84;6262850;22;20410;-88
2022/09/17 03:11:55;;;;;;;4.90;0.93;;;;;;;20.04;100.00;100823.00;6312083;22;20402;-89
2022/09/17 03:14:23;;;;;;;7.17;1.07;;;;;;;20.01;100.00;100813.25;6261480;22;20845;-88
2022/09/17 03:16:50;;;;;;;2.70;0.90;;;;;;;20.05;100.00;100826.63;6261697;22;20392;-88
2022/09/17 03:19:18;;;;;;;3.23;1.10;;;;;;;20.06;100.00;100820.00;6262314;22;20697;-88
2022/09/17 03:21:47;;;;;;;10.60;2.23;;;;;;;20.09;100.00;100816.72;6312481;22;20396;-88
2022/09/17 03:24:17;;;;;;;3.90;0.90;;;;;;;20.09;100.00;100819.47;6312265;22;20408;-89
2022/09/17 03:26:48;;;;;;;3.73;1.27;;;;;;;20.08;100.00;100821.41;6261965;22;20863;-88
2022/09/17 03:29:17;;;;;;;2.47;1.07;;;;;;;20.06;100.00;100820.81;6287626;22;20396;-88
2022/09/17 03:31:45;;;;;;;4.13;1.20;;;;;;;20.05;100.00;100819.16;6286653;22;20393;-88
2022/09/17 03:34:14;;;;;;;5.03;0.80;;;;;;;20.03;100.00;100813.00;6287111;22;20450;-88
2022/09/17 03:36:44;;;;;;;5.00;1.20;;;;;;;20.01;100.00;100806.91;6311466;22;20426;-88
2022/09/17 03:39:13;;;;;;;5.20;1.20;;;;;;;19.95;100.00;100807.91;6312862;22;20428;-88
2022/09/17 03:41:41;;;;;;;4.97;1.33;;;;;;;19.98;100.00;100816.56;6286544;22;20449;-91
2022/09/17 03:44:17;;;;;;;2.87;1.13;;;;;;;19.97;100.00;100806.56;6262145;22;20744;-90
2022/09/17 03:46:54;;;;;;;5.00;1.30;;;;;;;19.97;100.00;100803.78;6262594;22;20439;-90
2022/09/17 03:49:23;;;;;;;5.23;1.27;;;;;;;19.99;100.00;100803.53;6312348;22;20482;-89
2022/09/17 03:51:52;;;;;;;2.03;0.97;;;;;;;20.04;100.00;100802.75;6286940;22;20730;-90
2022/09/17 03:54:20;;;;;;;3.53;0.90;;;;;;;20.04;100.00;100800.81;6288863;22;20424;-89
2022/09/17 03:56:50;;;;;;;10.60;1.00;;;;;;;20.05;100.00;100801.66;6265337;22;20391;-89
2022/09/17 03:59:18;;;;;;;3.50;1.00;;;;;;;20.05;100.00;100796.09;6312101;22;20403;-89
2022/09/17 04:01:46;;;;;;;3.87;1.10;;;;;;;20.07;99.91;100791.16;6261794;22;20396;-90
2022/09/17 04:04:13;;;;;;;4.53;1.30;;;;;;;20.11;99.51;100795.09;6261856;22;20388;-89
2022/09/17 04:06:42;;;;;;;6.50;1.10;;;;;;;20.08;99.48;100792.81;6286897;22;20411;-89
2022/09/17 04:09:12;;;;;;;5.90;1.03;;;;;;;20.08;99.42;100795.59;6312777;22;20929;-89
2022/09/17 04:11:40;;;;;;;7.77;1.00;;;;;;;20.01;99.23;100785.50;6261201;22;20882;-90
2022/09/17 04:14:09;;;;;;;5.67;1.10;;;;;;;20.05;99.15;100791.41;6286717;22;20440;-90
2022/09/17 04:16:38;;;;;;;4.77;1.37;;;;;;;20.08;99.30;100790.06;6261888;22;20419;-88
2022/09/17 04:19:06;;;;;;;3.27;1.20;;;;;;;20.11;98.81;100789.53;6287148;22;20401;-90
2022/09/17 04:21:34;;;;;;;1.60;0.70;;;;;;;20.14;98.76;100789.03;6287547;22;20389;-89
2022/09/17 04:24:06;;;;;;;4.23;0.90;;;;;;;20.10;98.54;100782.31;6261134;22;20430;-89
2022/09/17 04:26:44;;;;;;;5.43;1.13;;;;;;;20.00;98.70;100771.91;6339132;22;20404;-89
2022/09/17 04:29:13;;;;;;;3.73;0.97;;;;;;;20.08;98.93;100790.06;6312039;22;20421;-90
2022/09/17 04:31:44;;;;;;;3.63;1.07;;;;;;;20.04;98.39;100792.50;6286757;22;20411;-89
2022/09/17 04:34:12;;;;;;;6.40;1.17;;;;;;;20.01;98.85;100788.28;6311965;22;20431;-89
2022/09/17 04:36:40;;;;;;;2.97;1.20;;;;;;;20.04;98.71;100788.88;6287003;22;20402;-90
2022/09/17 04:39:10;;;;;;;5.70;1.20;;;;;;;20.02;98.72;100792.75;6287781;22;20408;-89
2022/09/17 04:41:41;;;;;;;8.77;1.50;;;;;;;19.99;99.14;100795.22;6287213;22;20739;-89
2022/09/17 04:44:09;;;;;;;6.20;1.20;;;;;;;19.94;99.41;100786.81;6340024;22;20388;-90
2022/09/17 04:46:36;;;;;;;3.83;1.10;;;;;;;19.91;99.76;100790.94;6255833;22;20951;-90
2022/09/17 04:49:14;;;;;;;7.23;1.53;;;;;;;19.87;100.00;100792.53;6280823;22;20393;-90
2022/09/17 04:51:43;;;;;;;7.40;1.33;;;;;;;19.82;100.00;100784.13;6307102;22;20412;-89
2022/09/17 04:54:16;;;;;;;5.50;1.53;;;;;;;19.83;100.00;100794.13;6281116;22;20919;-89
2022/09/17 04:56:45;;;;;;;5.47;1.80;;;;;;;19.74;100.00;100780.94;6280660;22;20404;-89
2022/09/17 04:59:13;;;;;;;6.60;1.20;;;;;;;19.77;100.00;100795.16;6281158;22;20491;-90
2022/09/17 05:01:43;;;;;;;6.90;1.67;;;;;;;19.72;100.00;100783.13;6254840;22;20397;-89
2022/09/17 05:04:13;;;;;;;10.07;1.50;;;;;;;19.70;100.00;100788.09;6280589;22;20436;-89
2022/09/17 05:06:40;;;;;;;4.87;1.40;;;;;;;19.63;100.00;100777.16;6281118;22;20413;-90
2022/09/17 05:09:11;;;;;;;6.53;1.73;;;;;;;19.66;100.00;100783.03;6281224;22;20479;-89
2022/09/17 05:11:39;;;;;;;10.20;1.97;;;;;;;19.65;100.00;100778.59;6305579;22;20908;-89
2022/09/17 05:14:07;;;;;;;6.93;1.60;;;;;;;19.69;100.00;100787.25;6255934;22;20439;-89
2022/09/17 05:16:38;;;;;;;5.50;1.43;;;;;;;19.69;100.00;100798.34;6280938;22;20741;-89
2022/09/17 05:19:08;;;;;;;4.87;1.50;;;;;;;19.70;100.00;100796.41;6306564;22;20385;-89
2022/09/17 05:21:38;;;;;;;9.27;2.07;;;;;;;19.67;100.00;100790.28;6306819;22;20401;-89
2022/09/17 05:24:07;;;;;;;10.57;1.80;;;;;;;19.68;100.00;100785.56;6306225;22;20409;-89
2022/09/17 05:26:36;;;;;;;9.97;2.10;;;;;;;19.71;100.00;100796.16;6280488;22;20435;-90
2022/09/17 05:29:05;;;;;;;7.10;1.50;;;;;;;19.67;100.00;100789.44;6281074;22;20386;-89
2022/09/17 05:31:32;;;;;;;8.50;1.70;;;;;;;19.69;100.00;100791.94;6280424;22;20412;-89
2022/09/17 05:34:01;;;;;;;8.90;2.40;;;;;;;19.67;100.00;100787.50;6256472;22;20427;-89
2022/09/17 05:36:31;;;;;;;8.00;1.70;;;;;;;19.63;100.00;100778.00;6255972;22;20388;-90
2022/09/17 05:38:59;;;;;;;5.27;1.93;;;;;;;19.64;100.00;100789.94;6256299;22;20385;-90
2022/09/17 05:41:30;;;;;;;6.33;2.20;;;;;;;19.62;100.00;100781.88;6280602;22;20977;-89
2022/09/17 05:43:57;;;;;;;7.80;1.93;;;;;;;19.63;100.00;100793.78;6281321;22;20389;-89
2022/09/17 05:46:26;;;;;;;9.03;2.07;;;;;;;19.62;100.00;100795.75;6286524;22;20432;-89
2022/09/17 05:48:57;;;;;;;6.73;2.17;;;;;;;19.64;100.00;100795.47;6313904;22;20384;-89
2022/09/17 05:51:30;;;;;;;7.57;2.73;;;;;;;19.62;100.00;100794.91;6313161;22;20737;-89
2022/09/17 05:53:58;;;;;;;8.80;2.53;;;;;;;19.59;100.00;100793.47;6312862;22;20436;-89
2022/09/17 05:56:27;;;;;;;4.50;1.53;;;;;;;19.57;100.00;100794.81;6288401;22;20909;-89
2022/09/17 05:58:56;;;;;;;9.87;2.00;;;;;;;19.54;100.00;100795.31;6288176;22;20384;-90
2022/09/17 06:01:26;;;;;;;5.37;1.73;;;;;;;19.51;100.00;100793.03;6287295;22;20730;-89
2022/09/17 06:03:56;;;;;;;7.13;1.90;;;;;;;19.52;100.00;100792.78;6313515;22;20415;-89
2022/09/17 06:06:23;;;;;;;7.10;1.87;;;;;;;19.50;100.00;100800.53;6288582;22;20769;-90
2022/09/17 06:08:58;;;;;;;5.97;1.83;;;;;;;19.51;100.00;100804.97;6262070;22;20404;-89
2022/09/17 06:11:27;;;;;;;7.00;2.00;;;;;;;19.49;100.00;100795.19;6288667;22;20382;-89
2022/09/17 06:13:55;;;;;;;5.50;1.80;;;;;;;19.48;100.00;100802.66;6287951;22;20436;-90
2022/09/17 06:16:24;;;;;;;8.70;1.90;;;;;;;19.52;100.00;100803.88;6262762;22;20403;-89
2022/09/17 06:18:54;;;;;;;9.77;2.37;;;;;;;19.56;100.00;100809.78;6262962;22;20404;-89
2022/09/17 06:21:22;;;;;;;5.13;1.60;;;;;;;19.56;100.00;100812.53;6288499;22;20414;-90
2022/09/17 06:23:51;;;;;;;15.37;2.83;;;;;;;19.55;100.00;100803.38;6262832;22;20403;-90
2022/09/17 06:26:22;;;;;;;17.80;3.27;;;;;;;19.50;100.00;100791.38;6262937;22;20954;-90
2022/09/17 06:28:50;;;;;;;11.27;3.20;;;;;;;19.60;100.00;100809.03;6313160;22;20401;-89
2022/09/17 06:31:18;;;;;;;12.83;3.60;;;;;;;19.65;100.00;100813.78;6263516;22;20391;-90
2022/09/17 06:33:47;;;;;;;12.83;3.40;;;;;;;19.64;100.00;100807.41;6262927;22;20396;-89
2022/09/17 06:36:16;;;;;;;12.20;2.83;;;;;;;19.56;100.00;100790.38;6287686;22;20886;-90
2022/09/17 06:38:44;;;;;;;13.00;3.57;;;;;;;19.64;100.00;100806.56;6288184;22;20400;-90
2022/09/17 06:41:21;;;;;;;19.47;4.30;;;;;;;19.66;100.00;100810.78;6262935;22;20385;-90
2022/09/17 06:43:54;;;;;;;14.23;3.93;;;;;;;19.63;100.00;100802.09;6287297;22;20395;-90
2022/09/17 06:46:23;;;;;;;18.90;4.40;;;;;;;19.66;100.00;100812.69;6263444;22;20747;-90
2022/09/17 06:48:51;;;;;;;9.40;3.10;;;;;;;19.68;100.00;100813.28;6314360;22;20400;-93
2022/09/17 06:51:41;;;;;;;18.97;4.33;;;;;;;19.75;100.00;100819.53;6288818;22;20385;-92
2022/09/17 06:54:11;;;;;;;23.40;4.67;;;;;;;19.78;100.00;100812.63;6287769;22;20432;-92
2022/09/17 06:56:41;;;;;;;11.00;3.50;;;;;;;19.81;100.00;100824.06;6263388;22;20404;-92
2022/09/17 06:59:24;;;;;;;28.43;5.80;;;;;;;19.88;100.00;100819.16;6288237;22;20411;-92
2022/09/17 07:01:53;;;;;;;23.30;5.93;;;;;;;19.89;100.00;100815.31;6287453;22;20937;-92
2022/09/17 07:04:36;;;;;;;29.13;6.60;;;;;;;20.59;100.00;100934.06;6262874;22;20412;-92
2022/09/17 07:07:10;;;;;;;47.37;6.80;;;;;;;19.99;100.00;100826.56;6289394;22;20408;-92
2022/09/17 07:09:39;;;;;;;37.10;7.37;;;;;;;19.99;100.00;100821.03;6287793;22;20450;-92
2022/09/17 07:12:29;;;;;;;38.40;8.50;;;;;;;20.08;100.00;100826.13;6289024;22;20463;-92
2022/09/17 07:14:59;;;;;;;26.63;6.93;;;;;;;20.07;100.00;100816.13;6287638;22;20523;-92
2022/09/17 07:17:28;;;;;;;27.53;6.50;;;;;;;20.12;100.00;100807.88;6262954;22;20731;-92
2022/09/17 07:19:58;;;;;;;34.03;7.23;;;;;;;20.18;100.00;100818.81;6262317;22;20898;-92
2022/09/17 07:22:28;;;;;;;37.00;6.87;;;;;;;20.13;100.00;100798.47;6313827;22;20419;-91
2022/09/17 07:25:04;;;;;;;32.67;7.20;;;;;;;20.18;100.00;100802.16;6264701;22;20486;-92
2022/09/17 07:27:33;;;;;;;26.43;6.60;;;;;;;20.29;100.00;100814.22;6313233;22;20766;-90
2022/09/17 07:30:05;;;;;;;16.53;5.57;;;;;;;20.26;100.00;100810.03;6285988;22;20400;-90
2022/09/17 07:32:44;;;;;;;26.63;6.30;;;;;;;20.37;100.00;100833.25;6288191;22;20396;-90
2022/09/17 07:35:14;;;;;;;19.40;4.07;;;;;;;20.36;100.00;100823.22;6288221;22;20941;-90
2022/09/17 07:38:05;;;;;;;11.80;5.53;;;;;;;20.37;100.00;100808.28;6200942;23;20398;-89
2022/09/17 07:40:36;;;;;;;14.93;5.53;;;;;;;20.37;100.00;100808.28;6170707;23;20406;-91
2022/09/17 07:43:06;;;;;;;12.63;5.27;;;;;;;20.47;100.00;100819.50;6271555;22;20403;-90
2022/09/17 07:45:34;;;;;;;13.40;4.80;;;;;;;20.53;100.00;100824.03;6312479;22;20489;-91
2022/09/17 07:48:02;;;;;;;18.60;5.70;;;;;;;20.55;100.00;100812.66;6261740;22;20404;-91
2022/09/17 07:50:32;;;;;;;14.60;5.10;;;;;;;20.60;100.00;100815.50;6262285;22;20485;-90
2022/09/17 07:53:00;;;;;;;17.73;5.60;;;;;;;20.60;100.00;100810.78;6313268;22;20392;-90
2022/09/17 07:55:30;;;;;;;15.20;4.77;;;;;;;20.63;100.00;100804.72;6262454;22;20451;-91
2022/09/17 07:58:01;;;;;;;16.90;5.57;;;;;;;20.70;100.00;100810.09;6289199;22;20403;-91
2022/09/17 08:00:32;;;;;;;14.73;4.53;;;;;;;20.74;100.00;100804.84;6262730;22;20779;-90
2022/09/17 08:03:02;;;;;;;17.90;5.03;;;;;;;20.78;100.00;100812.41;6262309;22;20430;-90
2022/09/17 08:05:41;;;;;;;19.47;5.53;;;;;;;20.83;100.00;100808.84;6166463;23;20391;-91
2022/09/17 08:08:15;;;;;;;24.10;5.87;;;;;;;20.88;100.00;100820.00;6165195;23;20400;-90
2022/09/17 08:10:47;;;;;;;12.33;4.77;;;;;;;20.96;100.00;100819.56;6166957;23;20407;-90
2022/09/17 08:13:16;;;;;;;21.43;5.07;;;;;;;20.98;100.00;100811.78;6165133;23;20400;-90
2022/09/17 08:15:44;;;;;;;16.60;5.00;;;;;;;21.06;100.00;100816.88;6189137;23;20431;-90
2022/09/17 08:18:15;;;;;;;12.93;4.97;;;;;;;21.08;100.00;100803.56;6166666;23;20407;-90
2022/09/17 08:20:44;;;;;;;11.70;4.00;;;;;;;21.17;100.00;100810.31;6173500;23;20396;-90
2022/09/17 08:23:35;;;;;;;18.60;5.50;;;;;;;21.36;100.00;100822.78;6198334;22;20947;-91
2022/09/17 08:26:07;;;;;;;17.27;5.00;;;;;;;21.41;100.00;100807.25;6286788;22;20406;-91
2022/09/17 08:28:36;;;;;;;13.60;4.30;;;;;;;21.46;100.00;100807.31;6287564;22;20400;-91
2022/09/17 08:31:07;;;;;;;16.07;4.40;;;;;;;21.53;100.00;100808.78;6287923;22;20404;-91
2022/09/17 08:33:38;;;;;;;15.37;3.77;;;;;;;21.60;100.00;100805.75;6261658;22;20924;-91
2022/09/17 08:40:06;;;;;;;12.53;4.37;;;;;;;21.85;100.00;100816.25;6304484;22;20725;-91
2022/09/17 08:42:48;;;;;;;14.47;3.83;;;;;;;21.92;100.00;100808.53;6263084;22;20784;-91
2022/09/17 08:45:18;;;;;;;14.97;4.03;;;;;;;22.07;100.00;100813.38;6286393;22;20450;-91
2022/09/17 08:47:50;;;;;;;11.57;3.50;;;;;;;22.12;100.00;100810.63;6311987;22;20462;-91
2022/09/17 08:50:30;;;;;;;13.20;3.57;;;;;;;22.25;100.00;100821.28;6286747;22;20419;-91
2022/09/17 08:53:15;;;;;;;10.20;3.30;;;;;;;22.35;100.00;100822.16;6338883;22;20404;-90
2022/09/17 08:56:12;;;;;;;14.80;3.90;;;;;;;22.49;99.59;100819.75;6312435;22;20482;-92
2022/09/17 08:58:54;;;;;;;13.50;3.50;;;;;;;22.63;99.20;100811.72;6310197;22;20482;-91
2022/09/17 09:01:51;;;;;;;14.90;3.60;;;;;;;22.79;98.54;100815.44;6312071;22;20487;-91
2022/09/17 09:04:48;;;;;;;13.60;3.40;;;;;;;22.93;97.62;100808.25;6287018;22;20407;-90
2022/09/17 09:07:20;;;;;;;11.60;3.40;;;;;;;23.05;96.05;100815.25;6286700;22;20398;-91
2022/09/17 09:10:04;;;;;;;10.03;3.47;;;;;;;23.17;95.40;100816.94;6286401;22;20396;-91
2022/09/17 09:12:33;;;;;;;14.13;3.30;;;;;;;23.28;94.38;100819.50;6288777;22;20437;-92
2022/09/17 09:15:25;;;;;;;15.70;3.73;;;;;;;23.40;92.92;100811.69;6262066;22;20443;-93
2022/09/17 09:18:15;;;;;;;14.70;2.70;;;;;;;23.60;92.25;100818.44;6288384;22;20411;-93
2022/09/17 09:28:34;;;;;;;12.93;3.03;;;;;;;24.13;90.42;100833.75;6341671;22;20371;-89
2022/09/17 09:43:02;;;;;;;8.50;2.70;;;;;;;24.67;88.59;100808.75;6352036;22;20417;-95
2022/09/17 09:45:58;;;;;;;7.23;2.77;;;;;;;24.92;87.60;100827.38;6298473;22;20419;-95
2022/09/17 10:00:42;;;;;;;8.23;2.00;;;;;;;25.61;81.82;100803.16;6315326;22;20741;-89
2022/09/17 10:03:14;;;;;;;8.80;2.53;;;;;;;25.83;80.61;100819.53;6238574;22;20405;-88
2022/09/17 10:49:08;;;;;;;3.80;1.60;;;;;;;27.92;68.92;100779.19;6340377;22;20411;-94
2022/09/17 11:41:28;;;;;;;5.03;1.80;;;;;;;29.25;63.90;100789.41;6347710;22;20468;-92
2022/09/17 11:44:10;;;;;;;4.90;1.60;;;;;;;29.36;63.30;100788.84;6312111;22;20410;-92
2022/09/17 11:46:46;;;;;;;5.43;2.20;;;;;;;29.34;62.97;100768.59;6312563;22;20440;-92
2022/09/17 11:49:39;;;;;;;8.30;1.80;;;;;;;29.49;62.91;100773.06;6262151;22;20404;-92
2022/09/17 11:52:33;;;;;;;3.70;1.60;;;;;;;29.64;62.61;100774.66;6292793;22;20403;-92
2022/09/17 11:55:07;;;;;;;3.77;1.73;;;;;;;29.69;61.83;100780.16;6312236;22;20463;-92
2022/09/17 11:57:38;;;;;;;3.60;1.80;;;;;;;29.72;61.69;100777.53;6312519;22;20391;-92
2022/09/17 12:00:19;;;;;;;6.60;1.93;;;;;;;29.74;61.14;100765.94;6261598;22;20494;-92
2022/09/17 12:03:05;;;;;;;10.90;1.93;;;;;;;29.80;60.26;100773.13;6310351;22;20395;-92
2022/09/17 12:05:42;;;;;;;6.23;1.60;;;;;;;29.87;60.70;100768.66;6264649;22;20457;-92
2022/09/17 12:08:13;;;;;;;6.17;1.87;;;;;;;29.92;60.00;100759.25;6286384;22;20435;-92
2022/09/17 12:10:59;;;;;;;3.40;1.53;;;;;;;30.02;59.75;100773.09;6287287;22;20392;-90
2022/09/17 12:13:47;;;;;;;4.60;2.00;;;;;;;30.08;60.38;100766.16;6313124;22;20400;-92
2022/09/17 12:16:20;;;;;;;5.57;1.73;;;;;;;30.13;60.03;100771.66;6263764;22;20471;-92
2022/09/17 12:19:15;;;;;;;3.00;1.27;;;;;;;30.26;59.83;100769.06;6287483;22;20399;-93
2022/09/17 12:21:50;;;;;;;6.67;1.37;;;;;;;30.31;59.54;100764.13;6312494;22;20478;-93
2022/09/17 12:24:28;;;;;;;4.60;1.60;;;;;;;30.40;59.46;100767.00;6288510;22;20759;-92
2022/09/17 12:26:59;;;;;;;4.97;1.50;;;;;;;30.41;59.72;100763.81;6288122;22;20407;-92
2022/09/17 12:29:48;;;;;;;3.33;1.77;;;;;;;30.40;58.80;100769.81;6311969;22;20486;-92
2022/09/17 12:32:47;;;;;;;3.60;1.87;;;;;;;30.42;58.41;100764.63;6312264;22;20418;-93
2022/09/17 12:35:48;;;;;;;2.93;1.20;;;;;;;30.51;58.45;100759.88;6311152;22;20431;-92
2022/09/17 12:38:45;;;;;;;7.20;1.60;;;;;;;30.62;58.38;100758.44;6293311;22;20468;-93
2022/09/17 12:41:35;;;;;;;5.93;1.40;;;;;;;30.69;57.31;100760.78;6285943;22;20425;-92
2022/09/17 12:44:22;;;;;;;4.07;1.40;;;;;;;30.67;56.86;100749.81;6311606;22;20411;-92
2022/09/17 12:47:11;;;;;;;8.90;2.00;;;;;;;30.78;57.33;100745.53;6311879;22;20511;-93
2022/09/17 12:50:27;;;;;;;4.77;2.03;;;;;;;30.87;56.78;100740.72;6311988;22;20464;-92
2022/09/17 12:53:29;;;;;;;2.77;1.20;;;;;;;30.98;56.10;100737.59;6260062;22;20404;-92
2022/09/17 12:55:57;;;;;;;3.03;1.30;;;;;;;31.05;55.78;100726.63;6288293;22;20962;-92
2022/09/17 12:59:10;;;;;;;4.00;1.30;;;;;;;31.12;55.02;100721.34;6314285;22;20856;-93
2022/09/17 13:01:44;;;;;;;5.37;1.77;;;;;;;31.17;54.95;100721.19;6310003;22;20733;-92
2022/09/17 13:04:37;;;;;;;4.40;1.40;;;;;;;31.17;55.75;100712.72;6314342;22;20431;-92
2022/09/17 13:07:59;;;;;;;5.40;1.60;;;;;;;31.32;55.08;100723.50;6300095;22;20396;-93
2022/09/17 13:10:41;;;;;;;3.10;1.37;;;;;;;31.32;54.80;100714.19;6310380;22;20782;-92
2022/09/17 13:13:42;;;;;;;4.60;1.40;;;;;;;31.37;54.72;100712.00;6314359;22;20889;-92
2022/09/17 13:16:31;;;;;;;4.30;1.70;;;;;;;31.47;55.48;100711.69;6289198;22;20443;-92
2022/09/17 13:19:17;;;;;;;7.90;1.60;;;;;;;31.51;55.70;100711.84;6288468;22;20768;-93
2022/09/17 13:21:51;;;;;;;4.20;1.50;;;;;;;31.57;55.19;100710.47;6314881;22;20387;-92
2022/09/17 13:24:24;;;;;;;4.60;2.07;;;;;;;31.54;54.42;100703.53;6288697;22;20885;-92
2022/09/17 13:26:52;;;;;;;3.63;1.87;;;;;;;31.66;54.63;100702.03;6288513;22;20407;-92
2022/09/17 13:30:01;;;;;;;6.40;1.90;;;;;;;31.65;54.76;100689.03;6289189;22;20960;-91
2022/09/17 13:32:31;;;;;;;8.27;1.73;;;;;;;31.74;54.82;100693.53;6136410;23;20404;-94
2022/09/17 13:35:14;;;;;;;5.07;1.50;;;;;;;31.78;54.50;100685.19;6185203;23;20723;-92
2022/09/17 13:37:43;;;;;;;6.00;1.67;;;;;;;31.76;53.56;100693.16;6184837;23;20894;-92
2022/09/17 13:40:32;;;;;;;6.87;1.73;;;;;;;31.78;54.32;100688.00;6184907;23;20408;-92
2022/09/17 13:43:14;;;;;;;4.27;1.50;;;;;;;31.78;53.75;100682.34;6136654;23;20867;-93
2022/09/17 13:46:00;;;;;;;4.63;1.67;;;;;;;31.84;53.45;100687.50;6113117;23;20395;-93
2022/09/17 13:52:40;;;;;;;5.63;1.33;;;;;;;31.92;52.62;100683.00;6185875;23;20410;-92
2022/09/17 13:55:08;;;;;;;5.93;1.30;;;;;;;31.91;52.45;100670.03;6185563;23;20917;-93
2022/09/17 13:57:46;;;;;;;4.00;1.30;;;;;;;31.94;52.40;100675.00;6160687;23;20414;-92
2022/09/17 14:00:52;;;;;;;4.57;1.80;;;;;;;31.94;52.11;100672.16;6160891;23;20439;-93
2022/09/17 14:03:45;;;;;;;4.20;2.03;;;;;;;31.95;52.57;100670.97;6263590;22;20394;-91
2022/09/17 14:06:20;;;;;;;3.87;1.60;;;;;;;31.90;52.72;100668.34;6340217;22;20422;-92
2022/09/17 14:08:48;;;;;;;4.83;1.13;;;;;;;31.87;52.30;100663.38;6340945;22;20433;-92
2022/09/17 14:11:22;;;;;;;11.90;1.57;;;;;;;31.89;52.86;100663.88;6263090;22;20901;-91